sensor_id;sensor_type;location;lat;lon;timestamp;temperature;humidity
18930;DHT22;43305;52.186;5.598;2022-09-03T00:01:19;18.00;99.90
18930;DHT22;43305;52.186;5.598;2022-09-03T00:03:58;18.00;99.90
18930;DHT22;43305;52.186;5.598;2022-09-03T00:06:33;17.90;99.90
18930;DHT22;43305;52.186;5.598;2022-09-03T00:09:08;17.90;99.90
18930;DHT22;43305;52.186;5.598;2022-09-03T00:11:49;17.90;99.90
18930;DHT22;43305;52.186;5.598;2022-09-03T00:14:37;17.90;99.90
18930;DHT22;43305;52.186;5.598;2022-09-03T00:17:13;17.80;99.90
18930;DHT22;43305;52.186;5.598;2022-09-03T00:19:51;17.80;99.90
18930;DHT22;43305;52.186;5.598;2022-09-03T00:22:23;17.80;99.90
18930;DHT22;43305;52.186;5.598;2022-09-03T00:24:55;17.80;99.90
18930;DHT22;43305;52.186;5.598;2022-09-03T00:27:28;17.70;99.90
18930;DHT22;43305;52.186;5.598;2022-09-03T00:30:00;17.70;99.90
18930;DHT22;43305;52.186;5.598;2022-09-03T00:32:40;17.70;99.90
18930;DHT22;43305;52.186;5.598;2022-09-03T00:35:24;17.70;99.90
18930;DHT22;43305;52.186;5.598;2022-09-03T00:37:54;17.70;99.90
18930;DHT22;43305;52.186;5.598;2022-09-03T00:40:37;17.60;99.90
18930;DHT22;43305;52.186;5.598;2022-09-03T00:43:15;17.60;99.90
18930;DHT22;43305;52.186;5.598;2022-09-03T00:45:57;17.60;99.90
18930;DHT22;43305;52.186;5.598;2022-09-03T00:48:32;17.60;99.90
18930;DHT22;43305;52.186;5.598;2022-09-03T00:51:25;17.50;99.90
18930;DHT22;43305;52.186;5.598;2022-09-03T00:54:01;17.50;99.90
18930;DHT22;43305;52.186;5.598;2022-09-03T00:56:36;17.50;99.90
18930;DHT22;43305;52.186;5.598;2022-09-03T00:59:15;17.50;99.90
18930;DHT22;43305;52.186;5.598;2022-09-03T01:02:02;17.40;99.90
18930;DHT22;43305;52.186;5.598;2022-09-03T01:04:42;17.40;99.90
18930;DHT22;43305;52.186;5.598;2022-09-03T01:07:21;17.40;99.90
18930;DHT22;43305;52.186;5.598;2022-09-03T01:10:14;17.30;99.90
18930;DHT22;43305;52.186;5.598;2022-09-03T01:12:50;17.20;99.90
18930;DHT22;43305;52.186;5.598;2022-09-03T01:15:29;17.20;99.90
18930;DHT22;43305;52.186;5.598;2022-09-03T01:18:06;17.20;99.90
18930;DHT22;43305;52.186;5.598;2022-09-03T01:20:48;17.20;99.90
18930;DHT22;43305;52.186;5.598;2022-09-03T01:23:42;17.10;99.90
18930;DHT22;43305;52.186;5.598;2022-09-03T01:26:28;17.10;99.90
18930;DHT22;43305;52.186;5.598;2022-09-03T01:29:03;17.10;99.90
18930;DHT22;43305;52.186;5.598;2022-09-03T01:31:45;17.10;99.90
18930;DHT22;43305;52.186;5.598;2022-09-03T01:34:21;17.00;99.90
18930;DHT22;43305;52.186;5.598;2022-09-03T01:36:59;17.00;99.90
18930;DHT22;43305;52.186;5.598;2022-09-03T01:39:36;17.00;99.90
18930;DHT22;43305;52.186;5.598;2022-09-03T01:42:11;17.00;99.90
18930;DHT22;43305;52.186;5.598;2022-09-03T01:47:47;17.00;99.90
18930;DHT22;43305;52.186;5.598;2022-09-03T01:50:28;17.00;99.90
18930;DHT22;43305;52.186;5.598;2022-09-03T01:53:08;17.00;99.90
18930;DHT22;43305;52.186;5.598;2022-09-03T01:55:47;16.90;99.90
18930;DHT22;43305;52.186;5.598;2022-09-03T01:58:32;16.90;99.90
18930;DHT22;43305;52.186;5.598;2022-09-03T02:01:16;16.90;99.90
18930;DHT22;43305;52.186;5.598;2022-09-03T02:03:46;16.90;99.90
18930;DHT22;43305;52.186;5.598;2022-09-03T02:06:16;16.90;99.90
18930;DHT22;43305;52.186;5.598;2022-09-03T02:08:52;16.90;99.90
18930;DHT22;43305;52.186;5.598;2022-09-03T02:11:22;16.80;99.90
18930;DHT22;43305;52.186;5.598;2022-09-03T02:13:54;16.80;99.90
18930;DHT22;43305;52.186;5.598;2022-09-03T02:16:29;16.80;99.90
18930;DHT22;43305;52.186;5.598;2022-09-03T02:19:00;16.80;99.90
18930;DHT22;43305;52.186;5.598;2022-09-03T02:21:32;16.70;99.90
18930;DHT22;43305;52.186;5.598;2022-09-03T02:24:03;16.70;99.90
18930;DHT22;43305;52.186;5.598;2022-09-03T02:26:34;16.70;99.90
18930;DHT22;43305;52.186;5.598;2022-09-03T02:29:03;16.70;99.90
18930;DHT22;43305;52.186;5.598;2022-09-03T02:31:34;16.60;99.90
18930;DHT22;43305;52.186;5.598;2022-09-03T02:34:01;16.60;99.90
18930;DHT22;43305;52.186;5.598;2022-09-03T02:36:34;16.60;99.90
18930;DHT22;43305;52.186;5.598;2022-09-03T02:39:05;16.50;99.90
18930;DHT22;43305;52.186;5.598;2022-09-03T02:41:50;16.50;99.90
18930;DHT22;43305;52.186;5.598;2022-09-03T02:44:26;16.50;99.90
18930;DHT22;43305;52.186;5.598;2022-09-03T02:46:59;16.50;99.90
18930;DHT22;43305;52.186;5.598;2022-09-03T02:49:30;16.50;99.90
18930;DHT22;43305;52.186;5.598;2022-09-03T02:51:58;16.50;99.90
18930;DHT22;43305;52.186;5.598;2022-09-03T02:54:30;16.50;99.90
18930;DHT22;43305;52.186;5.598;2022-09-03T02:57:02;16.40;99.90
18930;DHT22;43305;52.186;5.598;2022-09-03T02:59:30;16.40;99.90
18930;DHT22;43305;52.186;5.598;2022-09-03T03:02:03;16.40;99.90
18930;DHT22;43305;52.186;5.598;2022-09-03T03:04:30;16.30;99.90
18930;DHT22;43305;52.186;5.598;2022-09-03T03:06:58;16.30;99.90
18930;DHT22;43305;52.186;5.598;2022-09-03T03:09:24;16.20;99.90
18930;DHT22;43305;52.186;5.598;2022-09-03T03:11:55;16.20;99.90
18930;DHT22;43305;52.186;5.598;2022-09-03T03:14:21;16.20;99.90
18930;DHT22;43305;52.186;5.598;2022-09-03T03:16:50;16.10;99.90
18930;DHT22;43305;52.186;5.598;2022-09-03T03:19:18;16.10;99.90
18930;DHT22;43305;52.186;5.598;2022-09-03T03:21:45;16.10;99.90
18930;DHT22;43305;52.186;5.598;2022-09-03T03:24:15;16.00;99.90
18930;DHT22;43305;52.186;5.598;2022-09-03T03:26:50;16.00;99.90
18930;DHT22;43305;52.186;5.598;2022-09-03T03:29:20;16.00;99.90
18930;DHT22;43305;52.186;5.598;2022-09-03T03:31:50;16.00;99.90
18930;DHT22;43305;52.186;5.598;2022-09-03T03:34:18;15.90;99.90
18930;DHT22;43305;52.186;5.598;2022-09-03T03:36:47;15.90;99.90
18930;DHT22;43305;52.186;5.598;2022-09-03T03:39:16;15.90;99.90
18930;DHT22;43305;52.186;5.598;2022-09-03T03:41:48;15.90;99.90
18930;DHT22;43305;52.186;5.598;2022-09-03T03:44:19;15.80;99.90
18930;DHT22;43305;52.186;5.598;2022-09-03T03:46:49;15.90;99.90
18930;DHT22;43305;52.186;5.598;2022-09-03T03:49:17;15.80;99.90
18930;DHT22;43305;52.186;5.598;2022-09-03T03:51:48;15.80;99.90
18930;DHT22;43305;52.186;5.598;2022-09-03T03:54:15;15.80;99.90
18930;DHT22;43305;52.186;5.598;2022-09-03T03:56:41;15.80;99.90
18930;DHT22;43305;52.186;5.598;2022-09-03T03:59:08;15.70;99.90
18930;DHT22;43305;52.186;5.598;2022-09-03T04:01:35;15.70;99.90
18930;DHT22;43305;52.186;5.598;2022-09-03T04:04:02;15.60;99.90
18930;DHT22;43305;52.186;5.598;2022-09-03T04:06:31;15.60;99.90
18930;DHT22;43305;52.186;5.598;2022-09-03T04:08:58;15.60;99.90
18930;DHT22;43305;52.186;5.598;2022-09-03T04:11:32;15.60;99.90
18930;DHT22;43305;52.186;5.598;2022-09-03T04:14:01;15.50;99.90
18930;DHT22;43305;52.186;5.598;2022-09-03T04:16:28;15.50;99.90
18930;DHT22;43305;52.186;5.598;2022-09-03T04:18:58;15.50;99.90
18930;DHT22;43305;52.186;5.598;2022-09-03T04:21:26;15.40;99.90
18930;DHT22;43305;52.186;5.598;2022-09-03T04:23:58;15.40;99.90
18930;DHT22;43305;52.186;5.598;2022-09-03T04:26:27;15.40;99.90
18930;DHT22;43305;52.186;5.598;2022-09-03T04:28:59;15.30;99.90
18930;DHT22;43305;52.186;5.598;2022-09-03T04:31:27;15.30;99.90
18930;DHT22;43305;52.186;5.598;2022-09-03T04:33:56;15.30;99.90
18930;DHT22;43305;52.186;5.598;2022-09-03T04:36:26;15.30;99.90
18930;DHT22;43305;52.186;5.598;2022-09-03T04:38:57;15.30;99.90
18930;DHT22;43305;52.186;5.598;2022-09-03T04:41:28;15.30;99.90
18930;DHT22;43305;52.186;5.598;2022-09-03T04:43:58;15.30;99.90
18930;DHT22;43305;52.186;5.598;2022-09-03T04:46:27;15.30;99.90
18930;DHT22;43305;52.186;5.598;2022-09-03T04:48:59;15.30;99.90
18930;DHT22;43305;52.186;5.598;2022-09-03T04:51:27;15.30;99.90
18930;DHT22;43305;52.186;5.598;2022-09-03T04:53:58;15.30;99.90
18930;DHT22;43305;52.186;5.598;2022-09-03T04:56:27;15.20;99.90
18930;DHT22;43305;52.186;5.598;2022-09-03T04:58:55;15.20;99.90
18930;DHT22;43305;52.186;5.598;2022-09-03T05:01:27;15.20;99.90
18930;DHT22;43305;52.186;5.598;2022-09-03T05:03:55;15.20;99.90
18930;DHT22;43305;52.186;5.598;2022-09-03T05:06:24;15.20;99.90
18930;DHT22;43305;52.186;5.598;2022-09-03T05:08:57;15.20;99.90
18930;DHT22;43305;52.186;5.598;2022-09-03T05:11:28;15.20;99.90
18930;DHT22;43305;52.186;5.598;2022-09-03T05:13:57;15.20;99.90
18930;DHT22;43305;52.186;5.598;2022-09-03T05:16:35;15.20;99.90
18930;DHT22;43305;52.186;5.598;2022-09-03T05:19:01;15.30;99.90
18930;DHT22;43305;52.186;5.598;2022-09-03T05:21:32;15.30;99.90
18930;DHT22;43305;52.186;5.598;2022-09-03T05:24:04;15.30;99.90
18930;DHT22;43305;52.186;5.598;2022-09-03T05:26:36;15.30;99.90
18930;DHT22;43305;52.186;5.598;2022-09-03T05:29:05;15.30;99.90
18930;DHT22;43305;52.186;5.598;2022-09-03T05:31:33;15.40;99.90
18930;DHT22;43305;52.186;5.598;2022-09-03T05:34:04;15.40;99.90
18930;DHT22;43305;52.186;5.598;2022-09-03T05:36:33;15.50;99.90
18930;DHT22;43305;52.186;5.598;2022-09-03T05:39:04;15.50;99.90
18930;DHT22;43305;52.186;5.598;2022-09-03T05:41:34;15.50;99.90
18930;DHT22;43305;52.186;5.598;2022-09-03T05:44:01;15.50;99.90
18930;DHT22;43305;52.186;5.598;2022-09-03T05:46:29;15.60;99.90
18930;DHT22;43305;52.186;5.598;2022-09-03T05:48:57;15.60;99.90
18930;DHT22;43305;52.186;5.598;2022-09-03T05:51:25;15.60;99.90
18930;DHT22;43305;52.186;5.598;2022-09-03T05:53:52;15.60;99.90
18930;DHT22;43305;52.186;5.598;2022-09-03T05:56:26;15.70;99.90
18930;DHT22;43305;52.186;5.598;2022-09-03T05:58:55;15.70;99.90
18930;DHT22;43305;52.186;5.598;2022-09-03T06:01:25;15.70;99.90
18930;DHT22;43305;52.186;5.598;2022-09-03T06:03:54;15.70;99.90
18930;DHT22;43305;52.186;5.598;2022-09-03T06:06:23;15.80;99.90
18930;DHT22;43305;52.186;5.598;2022-09-03T06:08:50;15.80;99.90
18930;DHT22;43305;52.186;5.598;2022-09-03T06:11:17;15.80;99.90
18930;DHT22;43305;52.186;5.598;2022-09-03T06:13:47;15.80;99.90
18930;DHT22;43305;52.186;5.598;2022-09-03T06:16:14;15.90;99.90
18930;DHT22;43305;52.186;5.598;2022-09-03T06:18:41;15.90;99.90
18930;DHT22;43305;52.186;5.598;2022-09-03T06:21:08;15.90;99.90
18930;DHT22;43305;52.186;5.598;2022-09-03T06:23:35;16.00;99.90
18930;DHT22;43305;52.186;5.598;2022-09-03T06:26:03;16.00;99.90
18930;DHT22;43305;52.186;5.598;2022-09-03T06:28:30;16.00;99.90
18930;DHT22;43305;52.186;5.598;2022-09-03T06:31:00;16.00;99.90
18930;DHT22;43305;52.186;5.598;2022-09-03T06:33:28;16.00;99.90
18930;DHT22;43305;52.186;5.598;2022-09-03T06:35:56;16.10;99.90
18930;DHT22;43305;52.186;5.598;2022-09-03T06:38:24;16.10;99.90
18930;DHT22;43305;52.186;5.598;2022-09-03T06:40:52;16.30;99.90
18930;DHT22;43305;52.186;5.598;2022-09-03T06:43:20;16.30;99.90
18930;DHT22;43305;52.186;5.598;2022-09-03T06:45:53;16.40;99.90
18930;DHT22;43305;52.186;5.598;2022-09-03T06:48:22;16.50;99.90
18930;DHT22;43305;52.186;5.598;2022-09-03T06:50:54;16.60;99.90
18930;DHT22;43305;52.186;5.598;2022-09-03T06:53:22;16.70;99.90
18930;DHT22;43305;52.186;5.598;2022-09-03T06:55:53;16.80;99.90
18930;DHT22;43305;52.186;5.598;2022-09-03T06:58:21;16.90;99.90
18930;DHT22;43305;52.186;5.598;2022-09-03T07:00:48;17.00;99.90
18930;DHT22;43305;52.186;5.598;2022-09-03T07:03:17;17.20;99.90
18930;DHT22;43305;52.186;5.598;2022-09-03T07:05:45;17.30;99.90
18930;DHT22;43305;52.186;5.598;2022-09-03T07:08:13;17.40;99.90
18930;DHT22;43305;52.186;5.598;2022-09-03T07:10:44;17.60;99.90
18930;DHT22;43305;52.186;5.598;2022-09-03T07:13:12;17.70;99.90
18930;DHT22;43305;52.186;5.598;2022-09-03T07:15:39;17.90;99.90
18930;DHT22;43305;52.186;5.598;2022-09-03T07:18:06;18.10;99.90
18930;DHT22;43305;52.186;5.598;2022-09-03T07:20:33;18.30;99.90
18930;DHT22;43305;52.186;5.598;2022-09-03T07:23:05;18.50;99.90
18930;DHT22;43305;52.186;5.598;2022-09-03T07:25:31;18.70;99.90
18930;DHT22;43305;52.186;5.598;2022-09-03T07:27:58;18.80;99.90
18930;DHT22;43305;52.186;5.598;2022-09-03T07:30:31;19.10;99.90
18930;DHT22;43305;52.186;5.598;2022-09-03T07:32:58;19.20;99.90
18930;DHT22;43305;52.186;5.598;2022-09-03T07:35:27;19.40;99.90
18930;DHT22;43305;52.186;5.598;2022-09-03T07:37:54;19.50;99.90
18930;DHT22;43305;52.186;5.598;2022-09-03T07:40:22;19.80;99.90
18930;DHT22;43305;52.186;5.598;2022-09-03T07:42:55;19.90;99.90
18930;DHT22;43305;52.186;5.598;2022-09-03T07:45:23;20.00;99.90
18930;DHT22;43305;52.186;5.598;2022-09-03T07:47:50;20.10;99.90
18930;DHT22;43305;52.186;5.598;2022-09-03T07:50:16;20.20;99.90
18930;DHT22;43305;52.186;5.598;2022-09-03T07:52:43;20.20;99.90
18930;DHT22;43305;52.186;5.598;2022-09-03T07:55:10;20.30;99.90
18930;DHT22;43305;52.186;5.598;2022-09-03T07:57:38;20.40;99.90
18930;DHT22;43305;52.186;5.598;2022-09-03T08:00:06;20.50;99.90
18930;DHT22;43305;52.186;5.598;2022-09-03T08:02:33;20.80;99.90
18930;DHT22;43305;52.186;5.598;2022-09-03T08:05:00;20.80;99.90
18930;DHT22;43305;52.186;5.598;2022-09-03T08:07:28;20.90;99.90
18930;DHT22;43305;52.186;5.598;2022-09-03T08:09:55;20.90;99.90
18930;DHT22;43305;52.186;5.598;2022-09-03T08:12:21;21.10;99.90
18930;DHT22;43305;52.186;5.598;2022-09-03T08:14:50;21.20;99.90
18930;DHT22;43305;52.186;5.598;2022-09-03T08:17:16;21.20;99.90
18930;DHT22;43305;52.186;5.598;2022-09-03T08:19:43;21.30;99.90
18930;DHT22;43305;52.186;5.598;2022-09-03T08:22:12;21.30;99.90
18930;DHT22;43305;52.186;5.598;2022-09-03T08:24:38;21.50;99.90
18930;DHT22;43305;52.186;5.598;2022-09-03T08:27:07;21.40;99.90
18930;DHT22;43305;52.186;5.598;2022-09-03T08:29:33;21.40;99.90
18930;DHT22;43305;52.186;5.598;2022-09-03T08:32:03;21.50;99.90
18930;DHT22;43305;52.186;5.598;2022-09-03T08:34:29;21.60;99.90
18930;DHT22;43305;52.186;5.598;2022-09-03T08:36:57;21.70;99.90
18930;DHT22;43305;52.186;5.598;2022-09-03T08:39:26;21.80;99.90
18930;DHT22;43305;52.186;5.598;2022-09-03T08:42:09;21.80;99.90
18930;DHT22;43305;52.186;5.598;2022-09-03T08:44:43;21.90;99.90
18930;DHT22;43305;52.186;5.598;2022-09-03T08:47:16;21.90;99.90
18930;DHT22;43305;52.186;5.598;2022-09-03T08:49:49;22.00;99.90
18930;DHT22;43305;52.186;5.598;2022-09-03T08:52:24;22.10;99.90
18930;DHT22;43305;52.186;5.598;2022-09-03T08:54:59;22.20;99.90
18930;DHT22;43305;52.186;5.598;2022-09-03T08:57:31;22.40;99.90
18930;DHT22;43305;52.186;5.598;2022-09-03T09:00:01;22.50;99.90
18930;DHT22;43305;52.186;5.598;2022-09-03T09:02:36;22.60;99.90
18930;DHT22;43305;52.186;5.598;2022-09-03T09:05:11;22.50;99.90
18930;DHT22;43305;52.186;5.598;2022-09-03T09:07:43;22.60;99.90
18930;DHT22;43305;52.186;5.598;2022-09-03T09:10:16;22.70;99.90
18930;DHT22;43305;52.186;5.598;2022-09-03T09:12:51;22.80;99.90
18930;DHT22;43305;52.186;5.598;2022-09-03T09:15:27;22.80;99.90
18930;DHT22;43305;52.186;5.598;2022-09-03T09:18:06;22.90;99.90
18930;DHT22;43305;52.186;5.598;2022-09-03T09:20:39;23.00;99.90
18930;DHT22;43305;52.186;5.598;2022-09-03T09:23:13;23.00;99.90
18930;DHT22;43305;52.186;5.598;2022-09-03T09:25:46;23.10;99.90
18930;DHT22;43305;52.186;5.598;2022-09-03T09:28:17;23.10;99.90
18930;DHT22;43305;52.186;5.598;2022-09-03T09:30:45;23.20;99.90
18930;DHT22;43305;52.186;5.598;2022-09-03T09:33:13;23.20;99.90
18930;DHT22;43305;52.186;5.598;2022-09-03T09:35:40;23.20;99.90
18930;DHT22;43305;52.186;5.598;2022-09-03T09:38:08;23.30;99.90
18930;DHT22;43305;52.186;5.598;2022-09-03T09:40:36;23.30;99.90
18930;DHT22;43305;52.186;5.598;2022-09-03T09:43:06;23.50;99.90
18930;DHT22;43305;52.186;5.598;2022-09-03T09:45:35;23.60;99.90
18930;DHT22;43305;52.186;5.598;2022-09-03T09:48:10;23.60;99.90
18930;DHT22;43305;52.186;5.598;2022-09-03T09:50:41;23.60;99.90
18930;DHT22;43305;52.186;5.598;2022-09-03T09:53:10;23.70;99.90
18930;DHT22;43305;52.186;5.598;2022-09-03T09:55:49;23.70;99.90
18930;DHT22;43305;52.186;5.598;2022-09-03T09:58:18;23.80;99.90
18930;DHT22;43305;52.186;5.598;2022-09-03T10:00:55;24.00;99.90
18930;DHT22;43305;52.186;5.598;2022-09-03T10:03:21;24.20;99.90
18930;DHT22;43305;52.186;5.598;2022-09-03T10:06:00;24.40;99.90
18930;DHT22;43305;52.186;5.598;2022-09-03T10:08:49;24.50;99.90
18930;DHT22;43305;52.186;5.598;2022-09-03T10:11:17;24.50;99.90
18930;DHT22;43305;52.186;5.598;2022-09-03T10:13:46;24.50;99.90
18930;DHT22;43305;52.186;5.598;2022-09-03T10:16:20;24.60;99.90
18930;DHT22;43305;52.186;5.598;2022-09-03T10:18:56;24.50;99.90
18930;DHT22;43305;52.186;5.598;2022-09-03T10:21:29;24.50;99.90
18930;DHT22;43305;52.186;5.598;2022-09-03T10:24:05;24.50;99.90
18930;DHT22;43305;52.186;5.598;2022-09-03T10:26:41;24.70;99.90
18930;DHT22;43305;52.186;5.598;2022-09-03T10:29:09;24.80;99.90
18930;DHT22;43305;52.186;5.598;2022-09-03T10:31:44;24.80;99.90
18930;DHT22;43305;52.186;5.598;2022-09-03T10:34:17;24.80;99.90
18930;DHT22;43305;52.186;5.598;2022-09-03T10:36:53;24.90;99.90
18930;DHT22;43305;52.186;5.598;2022-09-03T10:39:28;25.00;99.90
18930;DHT22;43305;52.186;5.598;2022-09-03T10:42:17;25.00;99.90
18930;DHT22;43305;52.186;5.598;2022-09-03T10:44:58;25.20;99.90
18930;DHT22;43305;52.186;5.598;2022-09-03T10:47:38;25.20;99.90
18930;DHT22;43305;52.186;5.598;2022-09-03T10:50:13;25.20;99.90
18930;DHT22;43305;52.186;5.598;2022-09-03T10:52:58;25.20;99.90
18930;DHT22;43305;52.186;5.598;2022-09-03T10:55:41;25.30;99.90
18930;DHT22;43305;52.186;5.598;2022-09-03T10:58:24;25.50;99.90
18930;DHT22;43305;52.186;5.598;2022-09-03T11:01:01;25.60;99.90
18930;DHT22;43305;52.186;5.598;2022-09-03T11:03:42;25.80;99.90
18930;DHT22;43305;52.186;5.598;2022-09-03T11:06:12;25.80;99.90
18930;DHT22;43305;52.186;5.598;2022-09-03T11:08:44;25.70;99.90
18930;DHT22;43305;52.186;5.598;2022-09-03T11:11:16;25.80;99.90
18930;DHT22;43305;52.186;5.598;2022-09-03T11:13:49;25.80;99.90
18930;DHT22;43305;52.186;5.598;2022-09-03T11:16:21;25.90;99.90
18930;DHT22;43305;52.186;5.598;2022-09-03T11:18:54;25.70;99.90
18930;DHT22;43305;52.186;5.598;2022-09-03T11:21:24;25.70;99.90
18930;DHT22;43305;52.186;5.598;2022-09-03T11:24:06;25.90;99.90
18930;DHT22;43305;52.186;5.598;2022-09-03T11:26:36;25.80;99.90
18930;DHT22;43305;52.186;5.598;2022-09-03T11:29:09;25.80;99.90
18930;DHT22;43305;52.186;5.598;2022-09-03T11:31:45;25.90;99.90
18930;DHT22;43305;52.186;5.598;2022-09-03T11:34:26;26.00;99.90
18930;DHT22;43305;52.186;5.598;2022-09-03T11:37:06;26.00;99.90
18930;DHT22;43305;52.186;5.598;2022-09-03T11:39:42;26.10;99.90
18930;DHT22;43305;52.186;5.598;2022-09-03T11:42:11;26.10;99.90
18930;DHT22;43305;52.186;5.598;2022-09-03T11:44:39;26.10;99.90
18930;DHT22;43305;52.186;5.598;2022-09-03T11:47:16;26.10;99.90
18930;DHT22;43305;52.186;5.598;2022-09-03T11:49:49;26.00;99.90
18930;DHT22;43305;52.186;5.598;2022-09-03T11:52:25;26.20;99.90
18930;DHT22;43305;52.186;5.598;2022-09-03T11:54:54;26.20;99.90
18930;DHT22;43305;52.186;5.598;2022-09-03T11:57:26;26.40;99.90
18930;DHT22;43305;52.186;5.598;2022-09-03T11:59:54;26.40;99.90
18930;DHT22;43305;52.186;5.598;2022-09-03T12:02:34;26.50;99.90
18930;DHT22;43305;52.186;5.598;2022-09-03T12:05:13;26.40;99.90
18930;DHT22;43305;52.186;5.598;2022-09-03T12:08:01;26.50;99.90
18930;DHT22;43305;52.186;5.598;2022-09-03T12:10:39;26.50;99.90
18930;DHT22;43305;52.186;5.598;2022-09-03T12:13:17;26.50;99.90
18930;DHT22;43305;52.186;5.598;2022-09-03T12:16:05;26.60;99.90
18930;DHT22;43305;52.186;5.598;2022-09-03T12:18:36;26.70;99.90
18930;DHT22;43305;52.186;5.598;2022-09-03T12:21:07;26.70;99.90
18930;DHT22;43305;52.186;5.598;2022-09-03T12:23:39;26.90;99.90
18930;DHT22;43305;52.186;5.598;2022-09-03T12:26:11;26.90;99.90
18930;DHT22;43305;52.186;5.598;2022-09-03T12:28:40;26.80;99.90
18930;DHT22;43305;52.186;5.598;2022-09-03T12:31:09;26.80;99.90
18930;DHT22;43305;52.186;5.598;2022-09-03T12:33:46;26.80;99.90
18930;DHT22;43305;52.186;5.598;2022-09-03T12:36:14;26.80;99.90
18930;DHT22;43305;52.186;5.598;2022-09-03T12:38:41;26.80;99.90
18930;DHT22;43305;52.186;5.598;2022-09-03T12:41:21;26.90;99.90
18930;DHT22;43305;52.186;5.598;2022-09-03T12:43:51;27.00;99.90
18930;DHT22;43305;52.186;5.598;2022-09-03T12:46:21;27.00;99.90
18930;DHT22;43305;52.186;5.598;2022-09-03T12:48:56;27.10;99.90
18930;DHT22;43305;52.186;5.598;2022-09-03T12:51:31;27.10;99.90
18930;DHT22;43305;52.186;5.598;2022-09-03T12:53:58;27.00;99.90
18930;DHT22;43305;52.186;5.598;2022-09-03T12:56:28;27.10;99.90
18930;DHT22;43305;52.186;5.598;2022-09-03T12:58:58;27.40;99.90
18930;DHT22;43305;52.186;5.598;2022-09-03T13:01:29;27.50;99.90
18930;DHT22;43305;52.186;5.598;2022-09-03T13:04:02;27.70;99.90
18930;DHT22;43305;52.186;5.598;2022-09-03T13:06:38;27.70;99.90
18930;DHT22;43305;52.186;5.598;2022-09-03T13:09:07;27.70;99.90
18930;DHT22;43305;52.186;5.598;2022-09-03T13:11:36;27.80;99.90
18930;DHT22;43305;52.186;5.598;2022-09-03T13:14:04;27.60;99.90
18930;DHT22;43305;52.186;5.598;2022-09-03T13:16:45;27.80;99.90
18930;DHT22;43305;52.186;5.598;2022-09-03T13:19:21;27.90;99.90
18930;DHT22;43305;52.186;5.598;2022-09-03T13:21:53;28.00;99.90
18930;DHT22;43305;52.186;5.598;2022-09-03T13:24:39;27.90;99.90
18930;DHT22;43305;52.186;5.598;2022-09-03T13:27:18;27.90;99.90
18930;DHT22;43305;52.186;5.598;2022-09-03T13:30:00;27.70;99.90
18930;DHT22;43305;52.186;5.598;2022-09-03T13:32:37;27.80;99.90
18930;DHT22;43305;52.186;5.598;2022-09-03T13:35:09;27.90;99.90
18930;DHT22;43305;52.186;5.598;2022-09-03T13:37:39;28.00;99.90
18930;DHT22;43305;52.186;5.598;2022-09-03T13:40:17;28.10;99.90
18930;DHT22;43305;52.186;5.598;2022-09-03T13:42:50;28.20;99.90
18930;DHT22;43305;52.186;5.598;2022-09-03T13:45:27;28.30;99.90
18930;DHT22;43305;52.186;5.598;2022-09-03T13:47:58;28.40;99.90
18930;DHT22;43305;52.186;5.598;2022-09-03T13:50:44;28.60;99.90
18930;DHT22;43305;52.186;5.598;2022-09-03T13:53:17;28.70;99.90
18930;DHT22;43305;52.186;5.598;2022-09-03T13:55:47;28.80;99.90
18930;DHT22;43305;52.186;5.598;2022-09-03T13:58:23;28.80;99.90
18930;DHT22;43305;52.186;5.598;2022-09-03T14:01:01;28.50;99.90
18930;DHT22;43305;52.186;5.598;2022-09-03T14:03:33;28.40;99.90
18930;DHT22;43305;52.186;5.598;2022-09-03T14:06:05;28.50;99.90
18930;DHT22;43305;52.186;5.598;2022-09-03T14:08:38;28.70;99.90
18930;DHT22;43305;52.186;5.598;2022-09-03T14:11:22;29.00;99.90
18930;DHT22;43305;52.186;5.598;2022-09-03T14:14:01;29.30;99.90
18930;DHT22;43305;52.186;5.598;2022-09-03T14:16:38;29.50;99.90
18930;DHT22;43305;52.186;5.598;2022-09-03T14:19:11;29.70;99.90
18930;DHT22;43305;52.186;5.598;2022-09-03T14:21:44;30.10;99.90
18930;DHT22;43305;52.186;5.598;2022-09-03T14:24:16;30.40;99.90
18930;DHT22;43305;52.186;5.598;2022-09-03T14:26:50;30.50;99.90
18930;DHT22;43305;52.186;5.598;2022-09-03T14:29:22;30.50;99.90
18930;DHT22;43305;52.186;5.598;2022-09-03T14:32:05;30.60;99.90
18930;DHT22;43305;52.186;5.598;2022-09-03T14:34:44;30.80;99.90
18930;DHT22;43305;52.186;5.598;2022-09-03T14:37:28;30.80;99.90
18930;DHT22;43305;52.186;5.598;2022-09-03T14:40:04;31.30;99.90
18930;DHT22;43305;52.186;5.598;2022-09-03T14:42:49;31.50;99.90
18930;DHT22;43305;52.186;5.598;2022-09-03T14:45:33;31.80;99.90
18930;DHT22;43305;52.186;5.598;2022-09-03T14:48:19;32.20;99.90
18930;DHT22;43305;52.186;5.598;2022-09-03T14:51:02;32.40;99.90
18930;DHT22;43305;52.186;5.598;2022-09-03T14:53:50;31.70;99.90
18930;DHT22;43305;52.186;5.598;2022-09-03T14:56:26;32.00;99.90
18930;DHT22;43305;52.186;5.598;2022-09-03T14:59:06;32.20;99.50
18930;DHT22;43305;52.186;5.598;2022-09-03T15:01:37;32.50;98.80
18930;DHT22;43305;52.186;5.598;2022-09-03T15:04:19;31.80;98.30
18930;DHT22;43305;52.186;5.598;2022-09-03T15:07:06;31.20;99.80
18930;DHT22;43305;52.186;5.598;2022-09-03T15:09:41;31.00;99.20
18930;DHT22;43305;52.186;5.598;2022-09-03T15:12:17;30.80;99.10
18930;DHT22;43305;52.186;5.598;2022-09-03T15:14:51;31.30;99.40
18930;DHT22;43305;52.186;5.598;2022-09-03T15:17:32;31.10;99.00
18930;DHT22;43305;52.186;5.598;2022-09-03T15:20:16;30.20;99.70
18930;DHT22;43305;52.186;5.598;2022-09-03T15:25:54;29.40;99.90
18930;DHT22;43305;52.186;5.598;2022-09-03T15:28:29;29.80;99.90
18930;DHT22;43305;52.186;5.598;2022-09-03T15:31:04;30.50;99.70
18930;DHT22;43305;52.186;5.598;2022-09-03T15:33:42;31.10;99.70
18930;DHT22;43305;52.186;5.598;2022-09-03T15:36:16;31.10;99.00
18930;DHT22;43305;52.186;5.598;2022-09-03T15:38:49;31.20;99.20
18930;DHT22;43305;52.186;5.598;2022-09-03T15:41:28;31.80;98.70
18930;DHT22;43305;52.186;5.598;2022-09-03T15:43:58;32.30;98.00
18930;DHT22;43305;52.186;5.598;2022-09-03T15:46:34;32.70;97.80
18930;DHT22;43305;52.186;5.598;2022-09-03T15:49:07;32.10;97.80
18930;DHT22;43305;52.186;5.598;2022-09-03T15:51:42;32.00;97.20
18930;DHT22;43305;52.186;5.598;2022-09-03T15:54:16;31.40;97.90
18930;DHT22;43305;52.186;5.598;2022-09-03T15:56:50;30.90;97.90
18930;DHT22;43305;52.186;5.598;2022-09-03T15:59:22;30.40;98.00
18930;DHT22;43305;52.186;5.598;2022-09-03T16:01:57;29.90;98.60
18930;DHT22;43305;52.186;5.598;2022-09-03T16:04:38;29.60;98.60
18930;DHT22;43305;52.186;5.598;2022-09-03T16:07:09;29.50;98.80
18930;DHT22;43305;52.186;5.598;2022-09-03T16:09:48;29.30;99.30
18930;DHT22;43305;52.186;5.598;2022-09-03T16:12:28;29.60;99.40